sensor_id;sensor_type;location;lat;lon;timestamp;temperature;humidity
40291;DHT22;26000;48.304;13.626;2023-05-19T00:01:58;11.30;99.90
40291;DHT22;26000;48.304;13.626;2023-05-19T00:04:30;11.30;99.90
40291;DHT22;26000;48.304;13.626;2023-05-19T00:06:58;11.40;99.90
40291;DHT22;26000;48.304;13.626;2023-05-19T00:09:24;11.40;99.90
40291;DHT22;26000;48.304;13.626;2023-05-19T00:11:50;11.30;99.90
40291;DHT22;26000;48.304;13.626;2023-05-19T00:14:16;11.20;99.90
40291;DHT22;26000;48.304;13.626;2023-05-19T00:16:42;11.20;99.90
40291;DHT22;26000;48.304;13.626;2023-05-19T00:19:08;11.30;99.90
40291;DHT22;26000;48.304;13.626;2023-05-19T00:21:35;11.30;99.90
40291;DHT22;26000;48.304;13.626;2023-05-19T00:24:02;11.20;99.90
40291;DHT22;26000;48.304;13.626;2023-05-19T00:26:28;11.30;99.90
40291;DHT22;26000;48.304;13.626;2023-05-19T00:28:54;11.20;99.90
40291;DHT22;26000;48.304;13.626;2023-05-19T00:31:20;11.20;99.90
40291;DHT22;26000;48.304;13.626;2023-05-19T00:33:45;11.20;99.90
40291;DHT22;26000;48.304;13.626;2023-05-19T00:36:11;11.20;99.90
40291;DHT22;26000;48.304;13.626;2023-05-19T00:38:37;11.20;99.90
40291;DHT22;26000;48.304;13.626;2023-05-19T00:41:04;11.20;99.90
40291;DHT22;26000;48.304;13.626;2023-05-19T00:43:30;11.20;99.90
40291;DHT22;26000;48.304;13.626;2023-05-19T00:45:56;11.30;99.90
40291;DHT22;26000;48.304;13.626;2023-05-19T00:48:24;11.30;99.90
40291;DHT22;26000;48.304;13.626;2023-05-19T00:50:50;11.30;99.90
40291;DHT22;26000;48.304;13.626;2023-05-19T00:53:18;11.30;99.90
40291;DHT22;26000;48.304;13.626;2023-05-19T00:55:44;11.30;99.90
40291;DHT22;26000;48.304;13.626;2023-05-19T00:58:11;11.20;99.90
40291;DHT22;26000;48.304;13.626;2023-05-19T01:00:37;11.10;99.90
40291;DHT22;26000;48.304;13.626;2023-05-19T01:03:06;11.10;99.90
40291;DHT22;26000;48.304;13.626;2023-05-19T01:05:41;11.10;99.90
40291;DHT22;26000;48.304;13.626;2023-05-19T01:08:09;11.10;99.90
40291;DHT22;26000;48.304;13.626;2023-05-19T01:10:35;11.00;99.90
40291;DHT22;26000;48.304;13.626;2023-05-19T01:13:02;11.00;99.90
40291;DHT22;26000;48.304;13.626;2023-05-19T01:15:29;11.00;99.90
40291;DHT22;26000;48.304;13.626;2023-05-19T01:18:04;11.10;99.90
40291;DHT22;26000;48.304;13.626;2023-05-19T01:20:35;11.20;99.90
40291;DHT22;26000;48.304;13.626;2023-05-19T01:23:17;11.10;99.90
40291;DHT22;26000;48.304;13.626;2023-05-19T01:31:22;11.10;99.90
40291;DHT22;26000;48.304;13.626;2023-05-19T01:33:48;11.10;99.90
40291;DHT22;26000;48.304;13.626;2023-05-19T01:36:16;11.20;99.90
40291;DHT22;26000;48.304;13.626;2023-05-19T01:38:45;11.20;99.90
40291;DHT22;26000;48.304;13.626;2023-05-19T01:41:13;11.20;99.90
40291;DHT22;26000;48.304;13.626;2023-05-19T01:43:40;11.10;99.90
40291;DHT22;26000;48.304;13.626;2023-05-19T01:46:06;11.00;99.90
40291;DHT22;26000;48.304;13.626;2023-05-19T01:48:33;11.00;99.90
40291;DHT22;26000;48.304;13.626;2023-05-19T01:50:59;11.10;99.90
40291;DHT22;26000;48.304;13.626;2023-05-19T01:53:25;11.20;99.90
40291;DHT22;26000;48.304;13.626;2023-05-19T01:55:52;11.20;99.90
40291;DHT22;26000;48.304;13.626;2023-05-19T02:06:54;11.10;99.90
40291;DHT22;26000;48.304;13.626;2023-05-19T02:09:33;11.30;99.90
40291;DHT22;26000;48.304;13.626;2023-05-19T02:14:44;11.20;99.90
40291;DHT22;26000;48.304;13.626;2023-05-19T02:17:14;11.10;99.90
40291;DHT22;26000;48.304;13.626;2023-05-19T02:19:42;11.10;99.90
40291;DHT22;26000;48.304;13.626;2023-05-19T02:22:08;11.30;99.90
40291;DHT22;26000;48.304;13.626;2023-05-19T02:24:34;11.20;99.90
40291;DHT22;26000;48.304;13.626;2023-05-19T02:27:02;11.20;99.90
40291;DHT22;26000;48.304;13.626;2023-05-19T02:29:27;11.30;99.90
40291;DHT22;26000;48.304;13.626;2023-05-19T02:31:53;11.20;99.90
40291;DHT22;26000;48.304;13.626;2023-05-19T02:34:19;11.20;99.90
40291;DHT22;26000;48.304;13.626;2023-05-19T02:36:45;11.30;99.90
40291;DHT22;26000;48.304;13.626;2023-05-19T02:39:14;11.30;99.90
40291;DHT22;26000;48.304;13.626;2023-05-19T02:41:40;11.40;99.90
40291;DHT22;26000;48.304;13.626;2023-05-19T02:44:06;11.30;99.90
40291;DHT22;26000;48.304;13.626;2023-05-19T02:46:32;11.30;99.90
40291;DHT22;26000;48.304;13.626;2023-05-19T02:48:58;11.20;99.90
40291;DHT22;26000;48.304;13.626;2023-05-19T02:51:23;11.20;99.90
40291;DHT22;26000;48.304;13.626;2023-05-19T02:53:49;11.20;99.90
40291;DHT22;26000;48.304;13.626;2023-05-19T02:56:15;11.20;99.90
40291;DHT22;26000;48.304;13.626;2023-05-19T02:58:41;11.20;99.90
40291;DHT22;26000;48.304;13.626;2023-05-19T03:01:08;11.20;99.90
40291;DHT22;26000;48.304;13.626;2023-05-19T03:03:34;11.20;99.90
40291;DHT22;26000;48.304;13.626;2023-05-19T03:06:00;11.20;99.90
40291;DHT22;26000;48.304;13.626;2023-05-19T03:08:26;11.30;99.90
40291;DHT22;26000;48.304;13.626;2023-05-19T03:10:52;11.20;99.90
40291;DHT22;26000;48.304;13.626;2023-05-19T03:13:18;11.20;99.90
40291;DHT22;26000;48.304;13.626;2023-05-19T03:15:43;11.20;99.90
40291;DHT22;26000;48.304;13.626;2023-05-19T03:18:09;11.10;99.90
40291;DHT22;26000;48.304;13.626;2023-05-19T03:20:36;11.20;99.90
40291;DHT22;26000;48.304;13.626;2023-05-19T03:23:02;11.10;99.90
40291;DHT22;26000;48.304;13.626;2023-05-19T03:25:28;11.10;99.90
40291;DHT22;26000;48.304;13.626;2023-05-19T03:27:54;11.00;99.90
40291;DHT22;26000;48.304;13.626;2023-05-19T03:30:20;11.10;99.90
40291;DHT22;26000;48.304;13.626;2023-05-19T03:32:46;11.20;99.90
40291;DHT22;26000;48.304;13.626;2023-05-19T03:35:12;11.40;99.90
40291;DHT22;26000;48.304;13.626;2023-05-19T03:37:37;11.30;99.90
40291;DHT22;26000;48.304;13.626;2023-05-19T03:40:03;11.20;99.90
40291;DHT22;26000;48.304;13.626;2023-05-19T03:42:30;11.20;99.90
40291;DHT22;26000;48.304;13.626;2023-05-19T03:44:56;11.20;99.90
40291;DHT22;26000;48.304;13.626;2023-05-19T03:47:21;11.30;99.90
40291;DHT22;26000;48.304;13.626;2023-05-19T03:49:47;11.20;99.90
40291;DHT22;26000;48.304;13.626;2023-05-19T03:52:13;11.20;99.90
40291;DHT22;26000;48.304;13.626;2023-05-19T03:54:38;11.10;99.90
40291;DHT22;26000;48.304;13.626;2023-05-19T03:57:06;11.10;99.90
40291;DHT22;26000;48.304;13.626;2023-05-19T03:59:32;11.20;99.90
40291;DHT22;26000;48.304;13.626;2023-05-19T04:01:57;11.20;99.90
40291;DHT22;26000;48.304;13.626;2023-05-19T04:04:23;11.10;99.90
40291;DHT22;26000;48.304;13.626;2023-05-19T04:06:49;11.20;99.90
40291;DHT22;26000;48.304;13.626;2023-05-19T04:09:15;11.20;99.90
40291;DHT22;26000;48.304;13.626;2023-05-19T04:11:41;11.20;99.90
40291;DHT22;26000;48.304;13.626;2023-05-19T04:14:07;11.10;99.90
40291;DHT22;26000;48.304;13.626;2023-05-19T04:16:33;11.10;99.90
40291;DHT22;26000;48.304;13.626;2023-05-19T04:18:59;11.20;99.90
40291;DHT22;26000;48.304;13.626;2023-05-19T04:21:25;11.30;99.90
40291;DHT22;26000;48.304;13.626;2023-05-19T04:23:50;11.40;99.90
40291;DHT22;26000;48.304;13.626;2023-05-19T04:26:17;11.50;99.90
40291;DHT22;26000;48.304;13.626;2023-05-19T04:28:43;11.50;99.90
40291;DHT22;26000;48.304;13.626;2023-05-19T04:31:10;11.60;99.90
40291;DHT22;26000;48.304;13.626;2023-05-19T04:33:37;11.60;99.90
40291;DHT22;26000;48.304;13.626;2023-05-19T04:36:03;11.40;99.90
40291;DHT22;26000;48.304;13.626;2023-05-19T04:38:33;11.50;99.90
40291;DHT22;26000;48.304;13.626;2023-05-19T04:40:59;11.50;99.90
40291;DHT22;26000;48.304;13.626;2023-05-19T04:43:26;11.50;99.90
40291;DHT22;26000;48.304;13.626;2023-05-19T04:45:52;11.50;99.90
40291;DHT22;26000;48.304;13.626;2023-05-19T04:48:19;11.60;99.90
40291;DHT22;26000;48.304;13.626;2023-05-19T04:50:46;11.70;99.90
40291;DHT22;26000;48.304;13.626;2023-05-19T04:53:13;11.70;99.90
40291;DHT22;26000;48.304;13.626;2023-05-19T04:55:39;11.70;99.90
40291;DHT22;26000;48.304;13.626;2023-05-19T04:58:05;11.70;99.90
40291;DHT22;26000;48.304;13.626;2023-05-19T05:00:31;11.80;99.90
40291;DHT22;26000;48.304;13.626;2023-05-19T05:02:57;11.70;99.90
40291;DHT22;26000;48.304;13.626;2023-05-19T05:05:23;11.70;99.90
40291;DHT22;26000;48.304;13.626;2023-05-19T05:07:49;11.60;99.90
40291;DHT22;26000;48.304;13.626;2023-05-19T05:10:15;11.60;99.90
40291;DHT22;26000;48.304;13.626;2023-05-19T05:12:41;11.60;99.90
40291;DHT22;26000;48.304;13.626;2023-05-19T05:15:07;11.70;99.90
40291;DHT22;26000;48.304;13.626;2023-05-19T05:17:33;11.80;99.90
40291;DHT22;26000;48.304;13.626;2023-05-19T05:20:00;11.80;99.90
40291;DHT22;26000;48.304;13.626;2023-05-19T05:22:26;11.80;99.90
40291;DHT22;26000;48.304;13.626;2023-05-19T05:24:52;11.80;99.90
40291;DHT22;26000;48.304;13.626;2023-05-19T05:27:18;11.80;99.90
40291;DHT22;26000;48.304;13.626;2023-05-19T05:29:44;11.80;99.90
40291;DHT22;26000;48.304;13.626;2023-05-19T05:32:09;11.80;99.90
40291;DHT22;26000;48.304;13.626;2023-05-19T05:34:35;11.70;99.90
40291;DHT22;26000;48.304;13.626;2023-05-19T05:37:02;11.70;99.90
40291;DHT22;26000;48.304;13.626;2023-05-19T05:39:28;11.80;99.90
40291;DHT22;26000;48.304;13.626;2023-05-19T05:41:53;11.80;99.90
40291;DHT22;26000;48.304;13.626;2023-05-19T05:44:19;11.80;99.90
40291;DHT22;26000;48.304;13.626;2023-05-19T05:46:45;11.80;99.90
40291;DHT22;26000;48.304;13.626;2023-05-19T05:49:11;11.80;99.90
40291;DHT22;26000;48.304;13.626;2023-05-19T05:51:38;12.00;99.90
40291;DHT22;26000;48.304;13.626;2023-05-19T05:54:05;12.00;99.90
40291;DHT22;26000;48.304;13.626;2023-05-19T05:56:31;12.00;99.90
40291;DHT22;26000;48.304;13.626;2023-05-19T05:58:58;12.00;99.90
40291;DHT22;26000;48.304;13.626;2023-05-19T06:01:24;12.00;99.90
40291;DHT22;26000;48.304;13.626;2023-05-19T06:03:50;12.00;99.90
40291;DHT22;26000;48.304;13.626;2023-05-19T06:06:16;12.00;99.90
40291;DHT22;26000;48.304;13.626;2023-05-19T06:08:41;12.10;99.90
40291;DHT22;26000;48.304;13.626;2023-05-19T06:11:07;12.10;99.90
40291;DHT22;26000;48.304;13.626;2023-05-19T06:13:37;12.10;99.90
40291;DHT22;26000;48.304;13.626;2023-05-19T06:16:04;12.10;99.90
40291;DHT22;26000;48.304;13.626;2023-05-19T06:18:30;12.10;99.90
40291;DHT22;26000;48.304;13.626;2023-05-19T06:20:55;12.10;99.90
40291;DHT22;26000;48.304;13.626;2023-05-19T06:23:21;12.10;99.90
40291;DHT22;26000;48.304;13.626;2023-05-19T06:25:47;12.00;99.90
40291;DHT22;26000;48.304;13.626;2023-05-19T06:28:12;12.00;99.90
40291;DHT22;26000;48.304;13.626;2023-05-19T06:30:38;12.10;99.90
40291;DHT22;26000;48.304;13.626;2023-05-19T06:33:03;12.00;99.90
40291;DHT22;26000;48.304;13.626;2023-05-19T06:35:29;12.10;99.90
40291;DHT22;26000;48.304;13.626;2023-05-19T06:37:55;12.20;99.90
40291;DHT22;26000;48.304;13.626;2023-05-19T06:40:22;12.20;99.90
40291;DHT22;26000;48.304;13.626;2023-05-19T06:42:47;12.40;99.90
40291;DHT22;26000;48.304;13.626;2023-05-19T06:45:13;12.20;99.90
40291;DHT22;26000;48.304;13.626;2023-05-19T06:47:39;12.20;99.90
40291;DHT22;26000;48.304;13.626;2023-05-19T06:50:09;12.20;99.90
40291;DHT22;26000;48.304;13.626;2023-05-19T06:52:34;12.30;99.90
40291;DHT22;26000;48.304;13.626;2023-05-19T06:55:01;12.30;99.90
40291;DHT22;26000;48.304;13.626;2023-05-19T06:57:26;12.40;99.90
40291;DHT22;26000;48.304;13.626;2023-05-19T06:59:52;12.50;99.90
40291;DHT22;26000;48.304;13.626;2023-05-19T07:02:17;12.50;99.90
40291;DHT22;26000;48.304;13.626;2023-05-19T07:04:43;12.40;99.90
40291;DHT22;26000;48.304;13.626;2023-05-19T07:07:09;12.50;99.90
40291;DHT22;26000;48.304;13.626;2023-05-19T07:09:34;12.50;99.90
40291;DHT22;26000;48.304;13.626;2023-05-19T07:12:00;12.60;99.90
40291;DHT22;26000;48.304;13.626;2023-05-19T07:14:26;12.50;99.90
40291;DHT22;26000;48.304;13.626;2023-05-19T07:16:52;12.40;99.90
40291;DHT22;26000;48.304;13.626;2023-05-19T07:19:17;12.40;99.90
40291;DHT22;26000;48.304;13.626;2023-05-19T07:21:45;12.20;99.90
40291;DHT22;26000;48.304;13.626;2023-05-19T07:24:10;12.20;99.90
40291;DHT22;26000;48.304;13.626;2023-05-19T07:26:36;12.20;99.90
40291;DHT22;26000;48.304;13.626;2023-05-19T07:29:02;12.20;99.90
40291;DHT22;26000;48.304;13.626;2023-05-19T07:31:27;12.20;99.90
40291;DHT22;26000;48.304;13.626;2023-05-19T07:33:53;12.30;99.90
40291;DHT22;26000;48.304;13.626;2023-05-19T07:36:19;12.30;99.90
40291;DHT22;26000;48.304;13.626;2023-05-19T07:38:45;12.30;99.90
40291;DHT22;26000;48.304;13.626;2023-05-19T07:41:11;12.20;99.90
40291;DHT22;26000;48.304;13.626;2023-05-19T07:43:37;12.30;99.90
40291;DHT22;26000;48.304;13.626;2023-05-19T07:46:03;12.30;99.90
40291;DHT22;26000;48.304;13.626;2023-05-19T07:48:28;12.30;99.90
40291;DHT22;26000;48.304;13.626;2023-05-19T07:50:54;12.40;99.90
40291;DHT22;26000;48.304;13.626;2023-05-19T07:53:20;12.30;99.90
40291;DHT22;26000;48.304;13.626;2023-05-19T07:55:47;12.30;99.90
40291;DHT22;26000;48.304;13.626;2023-05-19T07:58:13;12.50;99.90
40291;DHT22;26000;48.304;13.626;2023-05-19T08:00:39;12.80;99.90
40291;DHT22;26000;48.304;13.626;2023-05-19T08:03:10;13.00;99.90
40291;DHT22;26000;48.304;13.626;2023-05-19T08:05:36;13.20;99.90
40291;DHT22;26000;48.304;13.626;2023-05-19T08:08:02;13.30;99.90
40291;DHT22;26000;48.304;13.626;2023-05-19T08:10:28;13.60;99.90
40291;DHT22;26000;48.304;13.626;2023-05-19T08:12:53;13.70;99.90
40291;DHT22;26000;48.304;13.626;2023-05-19T08:15:19;13.80;99.90
40291;DHT22;26000;48.304;13.626;2023-05-19T08:17:45;13.70;99.90
40291;DHT22;26000;48.304;13.626;2023-05-19T08:20:11;13.80;99.90
40291;DHT22;26000;48.304;13.626;2023-05-19T08:22:37;13.90;99.90
40291;DHT22;26000;48.304;13.626;2023-05-19T08:25:03;13.90;99.90
40291;DHT22;26000;48.304;13.626;2023-05-19T08:27:32;13.90;99.90
40291;DHT22;26000;48.304;13.626;2023-05-19T08:29:58;13.90;99.90
40291;DHT22;26000;48.304;13.626;2023-05-19T08:32:24;13.90;99.90
40291;DHT22;26000;48.304;13.626;2023-05-19T08:34:49;14.00;99.90
40291;DHT22;26000;48.304;13.626;2023-05-19T08:37:15;14.20;99.90
40291;DHT22;26000;48.304;13.626;2023-05-19T08:39:41;14.30;99.90
40291;DHT22;26000;48.304;13.626;2023-05-19T08:42:07;14.10;99.90
40291;DHT22;26000;48.304;13.626;2023-05-19T08:44:35;14.00;99.90
40291;DHT22;26000;48.304;13.626;2023-05-19T08:47:03;14.00;99.90
40291;DHT22;26000;48.304;13.626;2023-05-19T08:49:45;14.30;99.90
40291;DHT22;26000;48.304;13.626;2023-05-19T08:55:08;15.00;99.90
40291;DHT22;26000;48.304;13.626;2023-05-19T08:57:37;15.20;99.90
40291;DHT22;26000;48.304;13.626;2023-05-19T09:00:03;15.40;99.90
40291;DHT22;26000;48.304;13.626;2023-05-19T09:02:35;15.80;99.90
40291;DHT22;26000;48.304;13.626;2023-05-19T09:05:02;16.10;99.90
40291;DHT22;26000;48.304;13.626;2023-05-19T09:07:29;16.60;99.90
40291;DHT22;26000;48.304;13.626;2023-05-19T09:09:55;16.70;99.90
40291;DHT22;26000;48.304;13.626;2023-05-19T09:12:21;16.50;99.90
40291;DHT22;26000;48.304;13.626;2023-05-19T09:14:47;16.50;99.90
40291;DHT22;26000;48.304;13.626;2023-05-19T09:17:13;16.60;99.90
40291;DHT22;26000;48.304;13.626;2023-05-19T09:19:43;16.40;99.90
40291;DHT22;26000;48.304;13.626;2023-05-19T09:22:14;16.50;99.90
40291;DHT22;26000;48.304;13.626;2023-05-19T09:24:41;16.70;99.90
40291;DHT22;26000;48.304;13.626;2023-05-19T09:27:07;16.30;99.90
40291;DHT22;26000;48.304;13.626;2023-05-19T09:29:33;16.10;99.90
40291;DHT22;26000;48.304;13.626;2023-05-19T09:31:58;15.60;99.90
40291;DHT22;26000;48.304;13.626;2023-05-19T09:34:29;15.70;99.90
40291;DHT22;26000;48.304;13.626;2023-05-19T09:36:55;15.70;99.90
40291;DHT22;26000;48.304;13.626;2023-05-19T09:39:22;15.80;99.90
40291;DHT22;26000;48.304;13.626;2023-05-19T09:41:53;16.10;99.90
40291;DHT22;26000;48.304;13.626;2023-05-19T09:46:49;16.10;99.90
40291;DHT22;26000;48.304;13.626;2023-05-19T09:49:25;15.80;99.90
40291;DHT22;26000;48.304;13.626;2023-05-19T09:51:54;15.70;99.90
40291;DHT22;26000;48.304;13.626;2023-05-19T09:54:21;15.70;99.90
40291;DHT22;26000;48.304;13.626;2023-05-19T09:57:05;15.70;99.90
40291;DHT22;26000;48.304;13.626;2023-05-19T09:59:32;15.90;99.90
40291;DHT22;26000;48.304;13.626;2023-05-19T10:01:59;15.90;99.90
40291;DHT22;26000;48.304;13.626;2023-05-19T10:04:28;16.00;99.90
40291;DHT22;26000;48.304;13.626;2023-05-19T10:06:55;16.00;99.90
40291;DHT22;26000;48.304;13.626;2023-05-19T10:09:28;16.00;99.90
40291;DHT22;26000;48.304;13.626;2023-05-19T10:11:58;16.20;99.90
40291;DHT22;26000;48.304;13.626;2023-05-19T10:14:28;16.50;99.90
40291;DHT22;26000;48.304;13.626;2023-05-19T10:16:57;16.60;99.90
40291;DHT22;26000;48.304;13.626;2023-05-19T10:19:25;16.40;99.90
40291;DHT22;26000;48.304;13.626;2023-05-19T10:21:52;16.60;99.90
40291;DHT22;26000;48.304;13.626;2023-05-19T10:24:18;16.80;99.90
40291;DHT22;26000;48.304;13.626;2023-05-19T10:26:57;17.20;99.90
40291;DHT22;26000;48.304;13.626;2023-05-19T10:29:27;17.20;99.90
40291;DHT22;26000;48.304;13.626;2023-05-19T10:31:55;17.40;99.90
40291;DHT22;26000;48.304;13.626;2023-05-19T10:37:15;17.60;99.90
40291;DHT22;26000;48.304;13.626;2023-05-19T10:39:42;17.50;99.90
40291;DHT22;26000;48.304;13.626;2023-05-19T10:45:19;17.40;99.90
40291;DHT22;26000;48.304;13.626;2023-05-19T10:47:46;17.30;99.90
40291;DHT22;26000;48.304;13.626;2023-05-19T10:50:11;17.30;99.90
40291;DHT22;26000;48.304;13.626;2023-05-19T10:52:38;17.30;99.90
40291;DHT22;26000;48.304;13.626;2023-05-19T10:55:07;17.20;99.90
40291;DHT22;26000;48.304;13.626;2023-05-19T10:57:33;17.20;99.90
40291;DHT22;26000;48.304;13.626;2023-05-19T11:00:02;17.20;99.90
40291;DHT22;26000;48.304;13.626;2023-05-19T11:02:43;17.30;99.90
40291;DHT22;26000;48.304;13.626;2023-05-19T11:05:13;17.50;99.90
40291;DHT22;26000;48.304;13.626;2023-05-19T11:07:54;17.70;99.90
40291;DHT22;26000;48.304;13.626;2023-05-19T11:10:23;17.90;99.90
40291;DHT22;26000;48.304;13.626;2023-05-19T11:12:49;18.10;99.90
40291;DHT22;26000;48.304;13.626;2023-05-19T11:15:16;18.30;99.90
40291;DHT22;26000;48.304;13.626;2023-05-19T11:17:46;18.20;99.90
40291;DHT22;26000;48.304;13.626;2023-05-19T11:20:29;18.20;99.90
40291;DHT22;26000;48.304;13.626;2023-05-19T11:23:15;18.20;99.90
40291;DHT22;26000;48.304;13.626;2023-05-19T11:25:45;18.00;99.90
40291;DHT22;26000;48.304;13.626;2023-05-19T11:28:12;18.10;99.90
40291;DHT22;26000;48.304;13.626;2023-05-19T11:30:44;18.10;99.90
40291;DHT22;26000;48.304;13.626;2023-05-19T11:33:09;18.20;99.90
40291;DHT22;26000;48.304;13.626;2023-05-19T11:35:36;18.20;99.90
40291;DHT22;26000;48.304;13.626;2023-05-19T11:38:02;18.40;99.90
40291;DHT22;26000;48.304;13.626;2023-05-19T11:40:28;18.40;99.90
40291;DHT22;26000;48.304;13.626;2023-05-19T11:42:54;18.40;99.90
40291;DHT22;26000;48.304;13.626;2023-05-19T11:45:24;18.40;99.90
40291;DHT22;26000;48.304;13.626;2023-05-19T11:47:50;18.20;99.90
40291;DHT22;26000;48.304;13.626;2023-05-19T11:50:17;18.10;99.90
40291;DHT22;26000;48.304;13.626;2023-05-19T11:52:45;18.00;99.90
40291;DHT22;26000;48.304;13.626;2023-05-19T11:55:19;17.90;99.90
40291;DHT22;26000;48.304;13.626;2023-05-19T11:58:01;18.00;99.90
40291;DHT22;26000;48.304;13.626;2023-05-19T12:00:37;18.00;99.90
40291;DHT22;26000;48.304;13.626;2023-05-19T12:03:04;17.90;99.90
40291;DHT22;26000;48.304;13.626;2023-05-19T12:05:30;17.80;99.90
40291;DHT22;26000;48.304;13.626;2023-05-19T12:07:56;17.90;99.90
40291;DHT22;26000;48.304;13.626;2023-05-19T12:10:29;18.00;99.90
40291;DHT22;26000;48.304;13.626;2023-05-19T12:12:56;17.80;99.90
40291;DHT22;26000;48.304;13.626;2023-05-19T12:15:24;17.90;99.90
40291;DHT22;26000;48.304;13.626;2023-05-19T12:17:54;17.90;99.90
40291;DHT22;26000;48.304;13.626;2023-05-19T12:20:20;17.90;99.90
40291;DHT22;26000;48.304;13.626;2023-05-19T12:22:47;18.00;99.90
40291;DHT22;26000;48.304;13.626;2023-05-19T12:25:14;18.00;99.90
40291;DHT22;26000;48.304;13.626;2023-05-19T12:27:42;17.80;99.90
40291;DHT22;26000;48.304;13.626;2023-05-19T12:30:09;17.90;99.90
40291;DHT22;26000;48.304;13.626;2023-05-19T12:32:35;18.10;99.90
40291;DHT22;26000;48.304;13.626;2023-05-19T12:35:02;18.10;99.90
40291;DHT22;26000;48.304;13.626;2023-05-19T12:37:30;18.00;99.90
40291;DHT22;26000;48.304;13.626;2023-05-19T12:39:56;18.10;99.90
40291;DHT22;26000;48.304;13.626;2023-05-19T12:42:22;18.20;99.90
40291;DHT22;26000;48.304;13.626;2023-05-19T12:44:49;18.10;99.90
40291;DHT22;26000;48.304;13.626;2023-05-19T12:47:18;18.10;99.90
40291;DHT22;26000;48.304;13.626;2023-05-19T12:50:16;18.20;99.90
40291;DHT22;26000;48.304;13.626;2023-05-19T12:52:44;18.30;99.90
40291;DHT22;26000;48.304;13.626;2023-05-19T12:55:10;18.50;99.90
40291;DHT22;26000;48.304;13.626;2023-05-19T12:57:41;18.40;99.90
40291;DHT22;26000;48.304;13.626;2023-05-19T13:00:21;18.40;99.90
40291;DHT22;26000;48.304;13.626;2023-05-19T13:05:25;18.50;99.90
40291;DHT22;26000;48.304;13.626;2023-05-19T13:10:19;18.50;99.90
40291;DHT22;26000;48.304;13.626;2023-05-19T13:12:45;18.60;99.90
40291;DHT22;26000;48.304;13.626;2023-05-19T13:15:11;18.50;99.90
40291;DHT22;26000;48.304;13.626;2023-05-19T13:17:36;18.50;99.90
40291;DHT22;26000;48.304;13.626;2023-05-19T13:20:02;18.60;99.90
40291;DHT22;26000;48.304;13.626;2023-05-19T13:22:29;18.60;99.90
40291;DHT22;26000;48.304;13.626;2023-05-19T13:24:55;18.60;99.90
40291;DHT22;26000;48.304;13.626;2023-05-19T13:27:23;18.70;99.90
40291;DHT22;26000;48.304;13.626;2023-05-19T13:29:49;18.80;99.90
40291;DHT22;26000;48.304;13.626;2023-05-19T13:32:15;18.70;99.90
40291;DHT22;26000;48.304;13.626;2023-05-19T13:34:40;18.50;99.90
40291;DHT22;26000;48.304;13.626;2023-05-19T13:37:06;18.60;99.90
40291;DHT22;26000;48.304;13.626;2023-05-19T13:39:36;18.70;99.90
40291;DHT22;26000;48.304;13.626;2023-05-19T13:42:02;18.80;99.90
40291;DHT22;26000;48.304;13.626;2023-05-19T13:44:27;18.90;99.90
40291;DHT22;26000;48.304;13.626;2023-05-19T13:46:53;19.20;99.90
40291;DHT22;26000;48.304;13.626;2023-05-19T13:49:18;19.00;99.90
40291;DHT22;26000;48.304;13.626;2023-05-19T13:51:44;18.80;99.90
40291;DHT22;26000;48.304;13.626;2023-05-19T13:54:10;18.90;99.90
40291;DHT22;26000;48.304;13.626;2023-05-19T13:56:36;18.80;99.90
40291;DHT22;26000;48.304;13.626;2023-05-19T13:59:02;18.70;99.90
40291;DHT22;26000;48.304;13.626;2023-05-19T14:01:28;18.90;99.90
40291;DHT22;26000;48.304;13.626;2023-05-19T14:03:54;19.00;99.90
40291;DHT22;26000;48.304;13.626;2023-05-19T14:06:20;19.10;99.90
40291;DHT22;26000;48.304;13.626;2023-05-19T14:08:45;19.20;99.90
40291;DHT22;26000;48.304;13.626;2023-05-19T14:11:18;19.10;99.90
40291;DHT22;26000;48.304;13.626;2023-05-19T14:13:49;19.00;99.90
40291;DHT22;26000;48.304;13.626;2023-05-19T14:16:16;18.90;99.90
40291;DHT22;26000;48.304;13.626;2023-05-19T14:18:42;19.10;99.90
40291;DHT22;26000;48.304;13.626;2023-05-19T14:21:08;19.20;99.90
40291;DHT22;26000;48.304;13.626;2023-05-19T14:23:33;19.00;99.90
40291;DHT22;26000;48.304;13.626;2023-05-19T14:25:59;19.00;99.90
40291;DHT22;26000;48.304;13.626;2023-05-19T14:28:25;19.10;99.90
40291;DHT22;26000;48.304;13.626;2023-05-19T14:30:50;19.20;99.90
40291;DHT22;26000;48.304;13.626;2023-05-19T14:33:16;19.10;99.90
40291;DHT22;26000;48.304;13.626;2023-05-19T14:35:43;19.00;99.90
40291;DHT22;26000;48.304;13.626;2023-05-19T14:38:09;18.90;99.90
40291;DHT22;26000;48.304;13.626;2023-05-19T14:40:36;18.80;99.90
40291;DHT22;26000;48.304;13.626;2023-05-19T14:43:02;18.80;99.90
40291;DHT22;26000;48.304;13.626;2023-05-19T14:45:28;18.70;99.90
40291;DHT22;26000;48.304;13.626;2023-05-19T14:47:54;18.60;99.90
40291;DHT22;26000;48.304;13.626;2023-05-19T14:50:19;18.50;99.90
40291;DHT22;26000;48.304;13.626;2023-05-19T14:52:45;18.60;99.90
40291;DHT22;26000;48.304;13.626;2023-05-19T14:55:10;18.60;99.90
40291;DHT22;26000;48.304;13.626;2023-05-19T14:57:36;18.60;99.90
40291;DHT22;26000;48.304;13.626;2023-05-19T15:00:02;18.60;99.90
40291;DHT22;26000;48.304;13.626;2023-05-19T15:02:28;18.70;99.90
40291;DHT22;26000;48.304;13.626;2023-05-19T15:04:53;18.70;99.90
40291;DHT22;26000;48.304;13.626;2023-05-19T15:07:19;18.60;99.90
40291;DHT22;26000;48.304;13.626;2023-05-19T15:09:45;18.60;99.90
40291;DHT22;26000;48.304;13.626;2023-05-19T15:12:10;18.60;99.90
40291;DHT22;26000;48.304;13.626;2023-05-19T15:14:36;18.60;99.90
40291;DHT22;26000;48.304;13.626;2023-05-19T15:17:01;18.60;99.90
40291;DHT22;26000;48.304;13.626;2023-05-19T15:19:27;18.60;99.90
40291;DHT22;26000;48.304;13.626;2023-05-19T15:21:53;18.50;99.90
40291;DHT22;26000;48.304;13.626;2023-05-19T15:24:18;18.60;99.90
40291;DHT22;26000;48.304;13.626;2023-05-19T15:26:44;18.50;99.90
40291;DHT22;26000;48.304;13.626;2023-05-19T15:29:10;18.50;99.90
40291;DHT22;26000;48.304;13.626;2023-05-19T15:31:36;18.50;99.90
40291;DHT22;26000;48.304;13.626;2023-05-19T15:34:01;18.40;99.90
40291;DHT22;26000;48.304;13.626;2023-05-19T15:36:27;18.30;99.90
40291;DHT22;26000;48.304;13.626;2023-05-19T15:38:52;18.30;99.90
40291;DHT22;26000;48.304;13.626;2023-05-19T15:41:18;18.20;99.90
40291;DHT22;26000;48.304;13.626;2023-05-19T15:43:43;18.20;99.90
40291;DHT22;26000;48.304;13.626;2023-05-19T15:46:10;18.20;99.90
40291;DHT22;26000;48.304;13.626;2023-05-19T15:48:37;18.10;99.90